createdAt,value
2019-03-22T00:01:06.796Z,42.07
2019-03-22T00:03:36.508Z,50.00
2019-03-22T00:06:06.280Z,50.43
2019-03-22T00:08:36.029Z,53.57
2019-03-22T00:11:06.220Z,55.33
2019-03-22T00:13:35.984Z,50.37
2019-03-22T00:16:05.748Z,47.00
2019-03-22T00:18:35.552Z,51.63
2019-03-22T00:21:05.271Z,49.67
2019-03-22T00:23:35.051Z,53.47
2019-03-22T00:26:04.843Z,49.00
2019-03-22T00:28:34.636Z,51.87
2019-03-22T00:31:04.393Z,47.83
2019-03-22T00:33:34.184Z,50.87
2019-03-22T00:36:03.941Z,45.13
2019-03-22T00:38:33.692Z,42.17
2019-03-22T00:41:03.466Z,44.30
2019-03-22T00:43:33.243Z,42.53
2019-03-22T00:46:02.989Z,49.03
2019-03-22T00:48:32.740Z,43.07
2019-03-22T00:51:02.486Z,59.13
2019-03-22T00:53:32.261Z,60.40
2019-03-22T00:56:02.091Z,53.90
2019-03-22T00:58:31.946Z,51.10
2019-03-22T01:01:01.766Z,50.63
2019-03-22T01:03:31.520Z,52.90
2019-03-22T01:06:01.271Z,55.30
2019-03-22T01:08:31.489Z,53.03
2019-03-22T01:11:01.220Z,55.20
2019-03-22T01:13:31.034Z,46.53
2019-03-22T01:16:00.895Z,36.97
2019-03-22T01:18:30.680Z,50.77
2019-03-22T01:21:00.422Z,47.73
2019-03-22T01:23:30.171Z,47.20
2019-03-22T01:25:59.931Z,54.30
2019-03-22T01:28:29.684Z,57.30
2019-03-22T01:30:59.436Z,49.50
2019-03-22T01:33:29.373Z,51.43
2019-03-22T01:35:59.135Z,49.57
2019-03-22T01:38:28.904Z,46.57
2019-03-22T01:40:58.643Z,48.60
2019-03-22T01:43:28.476Z,54.57
2019-03-22T01:45:58.323Z,54.87
2019-03-22T01:48:28.064Z,66.53
2019-03-22T01:50:57.781Z,60.10
2019-03-22T01:53:27.557Z,61.90
2019-03-22T01:55:57.299Z,64.63
2019-03-22T01:58:27.143Z,66.13
2019-03-22T02:00:56.964Z,58.53
2019-03-22T02:03:26.741Z,56.23
2019-03-22T02:05:56.493Z,60.20
2019-03-22T02:08:26.236Z,60.03
2019-03-22T02:10:56.020Z,62.40
2019-03-22T02:13:25.769Z,61.67
2019-03-22T02:15:55.509Z,59.47
2019-03-22T02:18:25.264Z,50.97
2019-03-22T02:20:55.057Z,60.07
2019-03-22T02:23:24.792Z,56.00
2019-03-22T02:25:54.573Z,56.23
2019-03-22T02:28:24.399Z,58.97
2019-03-22T02:30:54.153Z,51.90
2019-03-22T02:33:23.912Z,51.20
2019-03-22T02:35:53.689Z,60.53
2019-03-22T02:38:23.461Z,55.27
2019-03-22T02:40:53.432Z,52.23
2019-03-22T02:43:23.267Z,47.53
2019-03-22T02:45:53.049Z,44.87
2019-03-22T02:48:22.797Z,55.63
2019-03-22T02:50:55.885Z,51.17
2019-03-22T02:53:23.963Z,45.23
2019-03-22T02:55:53.867Z,52.47
2019-03-22T02:58:23.754Z,57.47
2019-03-22T03:00:53.500Z,51.83
2019-03-22T03:03:23.277Z,45.90
2019-03-22T03:05:53.024Z,48.67
2019-03-22T03:08:22.884Z,43.57
2019-03-22T03:10:52.683Z,59.33
2019-03-22T03:13:22.456Z,57.47
2019-03-22T03:15:52.217Z,54.30
2019-03-22T03:18:21.981Z,62.63
2019-03-22T03:20:51.780Z,48.40
2019-03-22T03:23:21.556Z,61.30
2019-03-22T03:25:51.296Z,55.93
2019-03-22T03:28:35.649Z,62.10
2019-03-22T03:30:52.491Z,59.57
2019-03-22T03:33:22.325Z,67.93
2019-03-22T03:35:52.105Z,66.23
2019-03-22T03:38:21.837Z,67.90
2019-03-22T03:40:51.643Z,66.70
2019-03-22T03:43:21.425Z,65.27
2019-03-22T03:45:51.204Z,71.80
2019-03-22T03:48:20.949Z,76.90
2019-03-22T03:50:50.693Z,70.60
2019-03-22T03:53:20.517Z,65.50
2019-03-22T03:55:50.308Z,73.93
2019-03-22T03:58:20.050Z,71.83
2019-03-22T04:00:49.760Z,72.93
2019-03-22T04:03:19.542Z,75.07
2019-03-22T04:05:49.274Z,65.90
2019-03-22T04:08:19.052Z,70.17
2019-03-22T04:10:48.900Z,73.27
2019-03-22T04:13:18.696Z,80.07
2019-03-22T04:15:48.434Z,68.97
2019-03-22T04:18:18.208Z,79.50
2019-03-22T04:20:47.965Z,83.67
2019-03-22T04:23:17.726Z,75.80
2019-03-22T04:25:47.481Z,74.63
2019-03-22T04:28:19.181Z,72.40
2019-03-22T04:30:49.077Z,77.10
2019-03-22T04:33:18.851Z,73.33
2019-03-22T04:35:48.683Z,77.07
2019-03-22T04:38:18.452Z,69.20
2019-03-22T04:40:48.225Z,70.57
2019-03-22T04:43:18.015Z,75.03
2019-03-22T04:45:48.164Z,85.43
2019-03-22T04:48:26.763Z,89.63
2019-03-22T04:51:00.423Z,81.70
2019-03-22T04:53:35.100Z,82.17
2019-03-22T04:56:09.016Z,79.50
2019-03-22T04:58:41.696Z,83.40
2019-03-22T05:01:13.629Z,78.93
2019-03-22T05:03:44.271Z,84.93
2019-03-22T05:06:15.952Z,83.17
2019-03-22T05:08:47.201Z,82.33
2019-03-22T05:11:17.458Z,92.27
2019-03-22T05:13:50.485Z,94.03
2019-03-22T05:16:22.894Z,88.83
2019-03-22T05:18:54.063Z,81.63
2019-03-22T05:21:27.210Z,72.20
2019-03-22T05:24:00.334Z,83.03
2019-03-22T05:26:31.872Z,74.70
2019-03-22T05:29:02.420Z,75.90
2019-03-22T05:32:09.902Z,84.17
2019-03-22T05:34:39.693Z,77.37
2019-03-22T05:37:09.637Z,67.07
2019-03-22T05:39:39.388Z,83.10
2019-03-22T05:42:09.177Z,84.30
2019-03-22T05:44:38.965Z,80.87
2019-03-22T05:47:08.727Z,78.63
2019-03-22T05:49:38.528Z,74.67
2019-03-22T05:52:08.408Z,75.90
2019-03-22T05:54:38.176Z,83.27
2019-03-22T05:57:13.138Z,70.20
2019-03-22T05:59:42.874Z,70.60
2019-03-22T06:02:10.996Z,83.37
2019-03-22T06:04:40.775Z,81.10
2019-03-22T06:07:10.559Z,80.07
2019-03-22T06:09:40.411Z,84.83
2019-03-22T06:12:10.206Z,83.13
2019-03-22T06:14:39.985Z,73.00
2019-03-22T06:17:09.735Z,71.43
2019-03-22T06:19:39.574Z,75.20
2019-03-22T06:22:09.356Z,77.87
2019-03-22T06:24:39.116Z,82.17
2019-03-22T06:27:08.878Z,80.63
2019-03-22T06:29:38.721Z,75.67
2019-03-22T06:32:08.576Z,73.53
2019-03-22T06:34:38.344Z,88.27
2019-03-22T06:37:08.123Z,90.13
2019-03-22T06:39:37.871Z,89.10
2019-03-22T06:42:07.769Z,88.33
2019-03-22T06:44:37.652Z,90.00
2019-03-22T06:47:07.444Z,77.13
2019-03-22T06:49:37.202Z,80.80
2019-03-22T06:52:06.928Z,90.73
2019-03-22T06:54:36.731Z,79.07
2019-03-22T06:57:06.499Z,87.50
2019-03-22T06:59:36.259Z,91.77
2019-03-22T07:02:05.984Z,84.63
2019-03-22T07:04:35.831Z,79.57
2019-03-22T07:07:05.659Z,85.13
2019-03-22T07:09:35.472Z,83.93
2019-03-22T07:12:05.332Z,84.23
2019-03-22T07:14:35.086Z,75.57
2019-03-22T07:17:04.967Z,81.80
2019-03-22T07:19:34.980Z,87.83
2019-03-22T07:22:04.912Z,83.10
2019-03-22T07:24:34.676Z,93.27
2019-03-22T07:27:04.568Z,78.23
2019-03-22T07:29:34.369Z,79.17
2019-03-22T07:32:04.161Z,88.50
2019-03-22T07:34:33.944Z,89.80
2019-03-22T07:37:03.716Z,88.10
2019-03-22T07:39:33.516Z,70.27
2019-03-22T07:42:03.287Z,86.33
2019-03-22T07:44:33.039Z,80.97
2019-03-22T07:47:02.816Z,81.17
2019-03-22T07:49:32.633Z,93.50
2019-03-22T07:52:02.420Z,88.43
2019-03-22T07:54:32.211Z,86.23
2019-03-22T07:57:01.948Z,94.77
2019-03-22T07:59:31.723Z,81.37
2019-03-22T08:02:01.508Z,102.53
2019-03-22T08:04:31.284Z,88.87
2019-03-22T08:07:01.398Z,88.00
2019-03-22T08:09:31.347Z,90.50
2019-03-22T08:12:01.403Z,87.97
2019-03-22T08:14:31.178Z,89.33
2019-03-22T08:17:00.970Z,106.27
2019-03-22T08:19:30.732Z,86.53
2019-03-22T08:22:00.528Z,105.90
2019-03-22T08:24:30.292Z,82.60
2019-03-22T08:27:00.092Z,72.27
2019-03-22T08:29:29.858Z,85.07
2019-03-22T08:31:59.736Z,86.63
2019-03-22T08:34:29.493Z,77.37
2019-03-22T08:36:59.287Z,98.60
2019-03-22T08:39:29.030Z,90.33
2019-03-22T08:41:59.431Z,100.50
2019-03-22T08:44:29.176Z,99.20
2019-03-22T08:46:58.942Z,75.30
2019-03-22T08:49:28.794Z,84.33
2019-03-22T08:51:58.533Z,90.83
2019-03-22T08:54:28.308Z,78.33
2019-03-22T08:56:58.085Z,85.87
2019-03-22T08:59:27.846Z,84.47
2019-03-22T09:01:57.612Z,92.93
2019-03-22T09:04:27.333Z,90.57
2019-03-22T09:06:59.063Z,86.53
2019-03-22T09:09:40.699Z,91.47
2019-03-22T09:11:59.884Z,76.70
2019-03-22T09:14:29.703Z,72.53
2019-03-22T09:16:59.530Z,82.07
2019-03-22T09:19:29.354Z,77.20
2019-03-22T09:21:59.774Z,74.30
2019-03-22T09:24:38.957Z,66.93
2019-03-22T09:27:01.935Z,83.07
2019-03-22T09:29:31.847Z,80.80
2019-03-22T09:32:01.687Z,73.90
2019-03-22T09:34:34.003Z,76.87
2019-03-22T09:37:02.933Z,77.60
2019-03-22T09:39:32.818Z,67.50
2019-03-22T09:42:02.616Z,72.77
2019-03-22T09:44:42.803Z,84.73
2019-03-22T09:47:04.079Z,75.40
2019-03-22T09:49:33.860Z,74.93
2019-03-22T09:52:03.847Z,76.13
2019-03-22T09:54:33.615Z,78.63
2019-03-22T09:57:03.509Z,73.90
2019-03-22T09:59:33.290Z,72.53
2019-03-22T10:02:03.308Z,76.80
2019-03-22T10:04:33.162Z,72.57
2019-03-22T10:07:03.044Z,78.87
2019-03-22T10:09:32.945Z,71.03
2019-03-22T10:12:02.947Z,72.07
2019-03-22T10:14:32.680Z,69.27
2019-03-22T10:17:02.506Z,72.10
2019-03-22T10:19:32.200Z,72.40
2019-03-22T10:22:02.099Z,72.30
2019-03-22T10:24:31.886Z,75.80
2019-03-22T10:27:01.807Z,73.73
2019-03-22T10:29:33.455Z,69.03
2019-03-22T10:32:03.247Z,69.83
2019-03-22T10:34:32.943Z,73.13
2019-03-22T10:37:02.697Z,72.10
2019-03-22T10:39:32.489Z,66.77
2019-03-22T10:42:02.239Z,69.20
2019-03-22T10:44:32.066Z,68.03
2019-03-22T10:47:01.845Z,66.53
2019-03-22T10:49:31.655Z,66.80
2019-03-22T10:52:04.440Z,66.63
2019-03-22T10:54:33.035Z,67.13
2019-03-22T10:57:02.845Z,70.50
2019-03-22T10:59:32.602Z,61.47
2019-03-22T11:02:03.842Z,63.43
2019-03-22T11:04:33.813Z,61.87
2019-03-22T11:07:03.600Z,65.67
2019-03-22T11:09:33.390Z,65.23
2019-03-22T11:12:11.884Z,63.00
2019-03-22T11:14:34.631Z,65.97
2019-03-22T11:17:04.440Z,67.00
2019-03-22T11:19:34.264Z,63.47
2019-03-22T11:22:03.997Z,64.27
2019-03-22T11:24:33.759Z,62.53
2019-03-22T11:27:03.584Z,62.60
2019-03-22T11:29:33.328Z,63.77
2019-03-22T11:32:12.087Z,61.30
2019-03-22T11:34:34.499Z,65.20
2019-03-22T11:37:04.388Z,62.03
2019-03-22T11:39:34.142Z,69.40
2019-03-22T11:42:03.911Z,63.30
2019-03-22T11:44:33.689Z,55.87
2019-03-22T11:47:03.416Z,64.07
2019-03-22T11:49:33.201Z,61.37
2019-03-22T11:52:02.963Z,69.60
2019-03-22T11:54:32.792Z,59.17
2019-03-22T11:57:02.612Z,67.87
2019-03-22T11:59:32.404Z,68.67
2019-03-22T12:02:02.150Z,62.47
2019-03-22T12:04:31.876Z,64.93
2019-03-22T12:07:01.658Z,60.20
2019-03-22T12:09:31.399Z,58.67
2019-03-22T12:12:01.176Z,55.93
2019-03-22T12:14:30.996Z,58.17
2019-03-22T12:17:00.801Z,61.47
2019-03-22T12:19:30.549Z,62.43
2019-03-22T12:22:00.320Z,63.23
2019-03-22T12:24:30.097Z,62.53
2019-03-22T12:26:59.853Z,61.37
2019-03-22T12:29:29.768Z,59.70
2019-03-22T12:31:59.616Z,57.67
2019-03-22T12:34:29.424Z,60.10
2019-03-22T12:36:59.157Z,52.87
2019-03-22T12:39:28.892Z,52.67
2019-03-22T12:41:58.779Z,51.93
2019-03-22T12:44:28.631Z,54.10
2019-03-22T12:46:58.387Z,49.30
2019-03-22T12:49:28.336Z,45.90
2019-03-22T12:51:58.096Z,49.53
2019-03-22T12:54:28.100Z,50.37
2019-03-22T12:56:57.937Z,51.50
2019-03-22T12:59:27.687Z,52.43
2019-03-22T13:01:57.495Z,50.87
2019-03-22T13:04:27.253Z,47.30
2019-03-22T13:06:57.080Z,50.45
2019-03-22T13:09:26.872Z,48.08
2019-03-22T13:11:56.915Z,46.28
2019-03-22T13:14:26.801Z,45.08
2019-03-22T13:16:56.753Z,46.83
2019-03-22T13:19:26.531Z,47.48
2019-03-22T13:21:56.323Z,47.43
2019-03-22T13:24:26.103Z,46.68
2019-03-22T13:26:56.885Z,46.75
2019-03-22T13:29:26.671Z,47.55
2019-03-22T13:31:56.484Z,49.60
2019-03-22T13:34:26.333Z,45.03
2019-03-22T13:36:56.120Z,44.65
2019-03-22T13:39:26.621Z,45.33
2019-03-22T13:41:56.484Z,41.75
2019-03-22T13:44:26.346Z,42.95
2019-03-22T13:46:56.148Z,42.58
2019-03-22T13:49:26.017Z,35.83
2019-03-22T13:51:55.832Z,38.25
2019-03-22T13:54:25.564Z,40.65
2019-03-22T13:56:55.356Z,42.08
2019-03-22T13:59:25.121Z,46.05
2019-03-22T14:01:54.930Z,47.58
2019-03-22T14:04:25.029Z,39.27
2019-03-22T14:06:54.785Z,42.13
2019-03-22T14:09:24.524Z,42.15
2019-03-22T14:11:54.272Z,42.43
2019-03-22T14:14:24.016Z,39.23
2019-03-22T14:16:54.093Z,35.88
2019-03-22T14:19:24.038Z,38.97
2019-03-22T14:21:53.767Z,40.07
2019-03-22T14:24:23.512Z,38.67
2019-03-22T14:26:53.291Z,43.77
2019-03-22T14:29:23.072Z,43.03
2019-03-22T14:31:52.831Z,36.97
2019-03-22T14:34:22.590Z,38.73
2019-03-22T14:36:52.331Z,37.73
2019-03-22T14:39:22.109Z,41.97
2019-03-22T14:41:51.951Z,35.17
2019-03-22T14:44:25.538Z,39.40
2019-03-22T14:46:54.701Z,37.23
2019-03-22T14:49:24.681Z,38.03
2019-03-22T14:51:54.601Z,37.27
2019-03-22T14:54:24.821Z,39.77
2019-03-22T14:56:55.333Z,37.07
2019-03-22T14:59:25.529Z,39.97
2019-03-22T15:01:55.340Z,37.60
2019-03-22T15:04:25.101Z,37.67
2019-03-22T15:06:54.869Z,37.97
2019-03-22T15:09:24.659Z,31.83
2019-03-22T15:11:54.389Z,32.37
2019-03-22T15:14:41.928Z,34.90
2019-03-22T15:17:35.372Z,31.70
2019-03-22T15:20:18.224Z,35.40
2019-03-22T15:23:06.005Z,34.33
2019-03-22T15:25:54.825Z,31.67
2019-03-22T15:28:42.374Z,30.97
2019-03-22T15:31:30.919Z,36.10
2019-03-22T15:34:12.171Z,31.63
2019-03-22T15:36:59.946Z,28.00
2019-03-22T15:39:48.733Z,30.77
2019-03-22T15:42:18.476Z,29.05
2019-03-22T15:44:48.284Z,29.60
2019-03-22T15:47:18.154Z,33.30
2019-03-22T15:49:48.159Z,35.58
2019-03-22T15:52:17.929Z,34.17
2019-03-22T15:54:47.761Z,33.50
2019-03-22T15:57:17.607Z,32.83
2019-03-22T15:59:47.346Z,32.47
2019-03-22T16:02:17.116Z,33.50
2019-03-22T16:04:46.990Z,37.80
2019-03-22T16:07:16.766Z,36.23
2019-03-22T16:09:46.601Z,36.73
2019-03-22T16:12:16.460Z,35.67
2019-03-22T16:14:46.215Z,36.47
2019-03-22T16:17:15.957Z,33.87
2019-03-22T16:19:45.957Z,36.00
2019-03-22T16:22:15.700Z,29.60
2019-03-22T16:24:45.476Z,31.70
2019-03-22T16:27:15.297Z,34.13
2019-03-22T16:29:45.081Z,29.73
2019-03-22T16:32:14.829Z,35.33
2019-03-22T16:34:44.588Z,30.83
2019-03-22T16:37:14.359Z,31.00
2019-03-22T16:39:44.273Z,29.00
2019-03-22T16:42:14.065Z,33.70
2019-03-22T16:44:43.906Z,32.03
2019-03-22T16:47:13.704Z,31.17
2019-03-22T16:49:43.444Z,33.17
2019-03-22T16:52:13.611Z,31.83
2019-03-22T16:54:43.443Z,29.03
2019-03-22T16:57:13.242Z,27.63
2019-03-22T16:59:42.976Z,32.37
2019-03-22T17:02:12.869Z,29.10
2019-03-22T17:04:42.639Z,31.77
2019-03-22T17:07:12.434Z,32.07
2019-03-22T17:09:42.252Z,33.63
2019-03-22T17:12:12.209Z,32.67
2019-03-22T17:14:41.961Z,32.77
2019-03-22T17:17:11.814Z,32.23
2019-03-22T17:19:41.751Z,31.20
2019-03-22T17:22:11.646Z,31.97
2019-03-22T17:24:41.416Z,31.67
2019-03-22T17:27:11.264Z,32.70
2019-03-22T17:29:41.051Z,29.77
2019-03-22T17:32:10.830Z,31.77
2019-03-22T17:34:40.587Z,30.90
2019-03-22T17:37:10.367Z,27.90
2019-03-22T17:39:40.112Z,33.13
2019-03-22T17:42:09.892Z,32.87
2019-03-22T17:44:39.680Z,33.30
2019-03-22T17:47:09.491Z,29.33
2019-03-22T17:49:47.840Z,30.70
2019-03-22T17:52:10.684Z,29.70
2019-03-22T17:54:40.466Z,31.30
2019-03-22T17:57:18.365Z,29.13
2019-03-22T17:59:41.736Z,32.67
2019-03-22T18:02:11.600Z,28.30
2019-03-22T18:04:41.345Z,24.53
2019-03-22T18:07:11.165Z,30.27
2019-03-22T18:09:40.901Z,28.10
2019-03-22T18:12:10.783Z,29.53
2019-03-22T18:14:40.530Z,24.83
2019-03-22T18:17:10.344Z,23.03
2019-03-22T18:19:40.084Z,23.77
2019-03-22T18:22:09.848Z,25.03
2019-03-22T18:24:39.641Z,23.77
2019-03-22T18:27:09.413Z,21.53
2019-03-22T18:29:39.170Z,22.30
2019-03-22T18:32:08.955Z,23.87
2019-03-22T18:34:38.656Z,27.67
2019-03-22T18:37:08.434Z,25.47
2019-03-22T18:39:38.180Z,26.77
2019-03-22T18:42:07.971Z,30.70
2019-03-22T18:44:37.733Z,28.43
2019-03-22T18:47:07.591Z,29.60
2019-03-22T18:49:37.373Z,33.30
2019-03-22T18:52:08.207Z,29.13
2019-03-22T18:54:38.142Z,32.20
2019-03-22T18:57:07.922Z,29.20
2019-03-22T18:59:37.676Z,28.87
2019-03-22T19:02:07.460Z,29.50
2019-03-22T19:04:43.924Z,26.17
2019-03-22T19:07:08.705Z,33.33
2019-03-22T19:09:38.529Z,30.93
2019-03-22T19:12:08.266Z,29.80
2019-03-22T19:14:38.027Z,26.83
2019-03-22T19:17:07.779Z,29.87
2019-03-22T19:19:37.556Z,29.37
2019-03-22T19:22:07.305Z,32.57
2019-03-22T19:24:37.057Z,36.97
2019-03-22T19:27:06.806Z,34.40
2019-03-22T19:29:36.567Z,32.83
2019-03-22T19:32:13.321Z,32.23
2019-03-22T19:34:37.741Z,35.93
2019-03-22T19:37:07.504Z,28.93
2019-03-22T19:39:37.258Z,31.50
2019-03-22T19:42:07.478Z,32.70
2019-03-22T19:44:37.216Z,39.33
2019-03-22T19:47:06.979Z,42.00
2019-03-22T19:49:36.739Z,33.40
2019-03-22T19:52:06.472Z,36.27
2019-03-22T19:54:36.264Z,35.67
2019-03-22T19:57:05.999Z,37.43
2019-03-22T19:59:35.731Z,34.20
2019-03-22T20:02:05.505Z,46.23
2019-03-22T20:04:35.312Z,40.20
2019-03-22T20:07:05.105Z,40.23
2019-03-22T20:09:34.839Z,42.17
2019-03-22T20:12:04.844Z,36.27
2019-03-22T20:14:34.604Z,45.33
2019-03-22T20:17:04.364Z,44.33
2019-03-22T20:19:34.113Z,35.07
2019-03-22T20:22:03.848Z,43.13
2019-03-22T20:24:33.696Z,43.67
2019-03-22T20:27:03.442Z,45.03
2019-03-22T20:29:33.221Z,45.83
2019-03-22T20:32:02.949Z,48.70
2019-03-22T20:34:32.712Z,46.13
2019-03-22T20:37:02.506Z,46.77
2019-03-22T20:39:32.292Z,47.67
2019-03-22T20:42:02.045Z,50.00
2019-03-22T20:44:34.085Z,46.37
2019-03-22T20:47:03.363Z,44.07
2019-03-22T20:49:33.177Z,52.30
2019-03-22T20:52:03.004Z,50.87
2019-03-22T20:54:32.808Z,50.77
2019-03-22T20:57:02.600Z,59.43
2019-03-22T20:59:32.368Z,49.63
2019-03-22T21:02:02.188Z,50.57
2019-03-22T21:04:31.922Z,68.80
2019-03-22T21:07:01.773Z,88.70
2019-03-22T21:09:31.508Z,58.90
2019-03-22T21:12:03.732Z,57.57
2019-03-22T21:14:33.543Z,69.50
2019-03-22T21:17:03.392Z,63.47
2019-03-22T21:19:33.144Z,65.60
2019-03-22T21:22:02.918Z,75.73
2019-03-22T21:24:32.683Z,68.40
2019-03-22T21:27:02.498Z,55.23
2019-03-22T21:29:32.346Z,53.97
2019-03-22T21:32:02.093Z,54.03
2019-03-22T21:34:31.868Z,60.87
2019-03-22T21:37:01.614Z,65.57
2019-03-22T21:39:31.401Z,51.00
2019-03-22T21:42:01.121Z,55.50
2019-03-22T21:44:30.880Z,68.40
2019-03-22T21:47:00.640Z,57.07
2019-03-22T21:49:30.424Z,61.57
2019-03-22T21:52:00.153Z,69.20
2019-03-22T21:54:29.931Z,57.40
2019-03-22T21:56:59.672Z,73.33
2019-03-22T21:59:29.427Z,85.13
2019-03-22T22:01:59.306Z,67.53
2019-03-22T22:04:29.095Z,62.63
2019-03-22T22:06:58.896Z,75.10
2019-03-22T22:09:28.708Z,75.00
2019-03-22T22:11:58.541Z,77.23
2019-03-22T22:14:28.364Z,77.27
2019-03-22T22:16:58.222Z,77.13
2019-03-22T22:19:28.014Z,70.17
2019-03-22T22:21:57.740Z,72.63
2019-03-22T22:24:27.494Z,75.77
2019-03-22T22:26:57.343Z,71.23
2019-03-22T22:29:27.041Z,71.70
2019-03-22T22:31:56.879Z,75.43
2019-03-22T22:34:26.638Z,74.57
2019-03-22T22:36:56.380Z,77.60
2019-03-22T22:39:26.191Z,73.83
2019-03-22T22:41:55.968Z,75.63
2019-03-22T22:44:25.757Z,73.03
2019-03-22T22:46:55.483Z,74.87
2019-03-22T22:49:25.230Z,73.57
2019-03-22T22:51:54.992Z,72.27
2019-03-22T22:54:24.731Z,69.80
2019-03-22T22:56:54.770Z,73.83
2019-03-22T22:59:24.482Z,73.47
2019-03-22T23:01:54.452Z,71.83
2019-03-22T23:04:24.279Z,74.07
2019-03-22T23:06:54.031Z,72.23
2019-03-22T23:09:29.836Z,71.10
2019-03-22T23:11:59.620Z,75.90
2019-03-22T23:14:29.380Z,72.13
2019-03-22T23:16:59.124Z,71.73
2019-03-22T23:19:28.892Z,76.43
2019-03-22T23:21:58.717Z,80.27
2019-03-22T23:24:28.657Z,74.93
2019-03-22T23:26:58.438Z,71.77
2019-03-22T23:29:28.186Z,73.47
2019-03-22T23:31:57.953Z,70.27
2019-03-22T23:34:27.732Z,76.23
2019-03-22T23:36:57.494Z,74.60
2019-03-22T23:39:27.265Z,75.80
2019-03-22T23:41:57.047Z,72.00
2019-03-22T23:44:26.967Z,70.97
2019-03-22T23:46:56.724Z,71.77
2019-03-22T23:49:26.539Z,78.63
2019-03-22T23:51:56.306Z,74.40
2019-03-22T23:54:26.052Z,75.27
2019-03-22T23:56:55.812Z,70.03
2019-03-22T23:59:25.613Z,78.33
